sensor_id;sensor_type;location;lat;lon;timestamp;temperature;humidity
59855;DHT22;45732;52.850;6.896;2022-10-16T00:01:25;13.20;99.90
59855;DHT22;45732;52.850;6.896;2022-10-16T00:03:51;13.20;99.90
59855;DHT22;45732;52.850;6.896;2022-10-16T00:06:19;13.20;99.90
59855;DHT22;45732;52.850;6.896;2022-10-16T00:08:45;13.20;99.90
59855;DHT22;45732;52.850;6.896;2022-10-16T00:11:18;13.20;99.90
59855;DHT22;45732;52.850;6.896;2022-10-16T00:13:45;13.20;99.90
59855;DHT22;45732;52.850;6.896;2022-10-16T00:16:12;13.20;99.90
59855;DHT22;45732;52.850;6.896;2022-10-16T00:18:38;13.30;99.90
59855;DHT22;45732;52.850;6.896;2022-10-16T00:21:12;13.30;99.90
59855;DHT22;45732;52.850;6.896;2022-10-16T00:23:38;13.30;99.90
59855;DHT22;45732;52.850;6.896;2022-10-16T00:26:08;13.30;99.90
59855;DHT22;45732;52.850;6.896;2022-10-16T00:28:34;13.30;99.90
59855;DHT22;45732;52.850;6.896;2022-10-16T00:31:04;13.30;99.90
59855;DHT22;45732;52.850;6.896;2022-10-16T00:33:30;13.30;99.90
59855;DHT22;45732;52.850;6.896;2022-10-16T00:35:58;13.30;99.90
59855;DHT22;45732;52.850;6.896;2022-10-16T00:38:24;13.30;99.90
59855;DHT22;45732;52.850;6.896;2022-10-16T00:40:50;13.30;99.90
59855;DHT22;45732;52.850;6.896;2022-10-16T00:43:46;13.30;99.90
59855;DHT22;45732;52.850;6.896;2022-10-16T00:46:54;13.20;99.90
59855;DHT22;45732;52.850;6.896;2022-10-16T00:49:09;13.30;99.90
59855;DHT22;45732;52.850;6.896;2022-10-16T00:51:40;13.20;99.90
59855;DHT22;45732;52.850;6.896;2022-10-16T00:54:18;13.20;99.90
59855;DHT22;45732;52.850;6.896;2022-10-16T00:56:46;13.20;99.90
59855;DHT22;45732;52.850;6.896;2022-10-16T00:59:20;13.20;99.90
59855;DHT22;45732;52.850;6.896;2022-10-16T01:01:48;13.20;99.90
59855;DHT22;45732;52.850;6.896;2022-10-16T01:04:14;13.10;99.90
59855;DHT22;45732;52.850;6.896;2022-10-16T01:14:26;13.10;99.90
59855;DHT22;45732;52.850;6.896;2022-10-16T01:17:28;13.00;99.90
59855;DHT22;45732;52.850;6.896;2022-10-16T01:22:47;13.00;99.90
59855;DHT22;45732;52.850;6.896;2022-10-16T01:25:32;13.00;99.90
59855;DHT22;45732;52.850;6.896;2022-10-16T01:28:00;13.00;99.90
59855;DHT22;45732;52.850;6.896;2022-10-16T01:30:30;13.00;99.90
59855;DHT22;45732;52.850;6.896;2022-10-16T01:33:02;13.00;99.90
59855;DHT22;45732;52.850;6.896;2022-10-16T01:38:08;13.00;99.90
59855;DHT22;45732;52.850;6.896;2022-10-16T01:40:36;13.00;99.90
59855;DHT22;45732;52.850;6.896;2022-10-16T01:43:13;13.00;99.90
59855;DHT22;45732;52.850;6.896;2022-10-16T01:45:40;13.00;99.90
59855;DHT22;45732;52.850;6.896;2022-10-16T01:48:07;13.00;99.90
59855;DHT22;45732;52.850;6.896;2022-10-16T01:50:38;13.00;99.90
59855;DHT22;45732;52.850;6.896;2022-10-16T01:53:10;13.00;99.90
59855;DHT22;45732;52.850;6.896;2022-10-16T01:55:42;13.00;99.90
59855;DHT22;45732;52.850;6.896;2022-10-16T01:58:10;13.10;99.90
59855;DHT22;45732;52.850;6.896;2022-10-16T02:00:39;13.00;99.90
59855;DHT22;45732;52.850;6.896;2022-10-16T02:03:05;13.00;99.90
59855;DHT22;45732;52.850;6.896;2022-10-16T02:05:43;13.00;99.90
59855;DHT22;45732;52.850;6.896;2022-10-16T02:08:10;13.10;99.90
59855;DHT22;45732;52.850;6.896;2022-10-16T02:10:36;13.10;99.90
59855;DHT22;45732;52.850;6.896;2022-10-16T02:13:42;13.10;99.90
59855;DHT22;45732;52.850;6.896;2022-10-16T02:16:11;13.10;99.90
59855;DHT22;45732;52.850;6.896;2022-10-16T02:18:38;13.10;99.90
59855;DHT22;45732;52.850;6.896;2022-10-16T02:21:14;13.10;99.90
59855;DHT22;45732;52.850;6.896;2022-10-16T02:24:07;13.10;99.90
59855;DHT22;45732;52.850;6.896;2022-10-16T02:29:11;13.10;99.90
59855;DHT22;45732;52.850;6.896;2022-10-16T02:31:41;13.20;99.90
59855;DHT22;45732;52.850;6.896;2022-10-16T02:34:10;13.20;99.90
59855;DHT22;45732;52.850;6.896;2022-10-16T02:36:38;13.20;99.90
59855;DHT22;45732;52.850;6.896;2022-10-16T02:39:05;13.20;99.90
59855;DHT22;45732;52.850;6.896;2022-10-16T02:41:32;13.20;99.90
59855;DHT22;45732;52.850;6.896;2022-10-16T02:43:58;13.20;99.90
59855;DHT22;45732;52.850;6.896;2022-10-16T02:46:24;13.20;99.90
59855;DHT22;45732;52.850;6.896;2022-10-16T02:48:49;13.20;99.90
59855;DHT22;45732;52.850;6.896;2022-10-16T02:51:15;13.20;99.90
59855;DHT22;45732;52.850;6.896;2022-10-16T02:53:41;13.30;99.90
59855;DHT22;45732;52.850;6.896;2022-10-16T02:56:06;13.20;99.90
59855;DHT22;45732;52.850;6.896;2022-10-16T02:58:32;13.20;99.90
59855;DHT22;45732;52.850;6.896;2022-10-16T03:00:58;13.20;99.90
59855;DHT22;45732;52.850;6.896;2022-10-16T03:03:24;13.30;99.90
59855;DHT22;45732;52.850;6.896;2022-10-16T03:05:49;13.30;99.90
59855;DHT22;45732;52.850;6.896;2022-10-16T03:08:15;13.30;99.90
59855;DHT22;45732;52.850;6.896;2022-10-16T03:10:41;13.30;99.90
59855;DHT22;45732;52.850;6.896;2022-10-16T03:13:06;13.30;99.90
59855;DHT22;45732;52.850;6.896;2022-10-16T03:15:32;13.30;99.90
59855;DHT22;45732;52.850;6.896;2022-10-16T03:17:58;13.40;99.90
59855;DHT22;45732;52.850;6.896;2022-10-16T03:20:24;13.40;99.90
59855;DHT22;45732;52.850;6.896;2022-10-16T03:22:50;13.40;99.90
59855;DHT22;45732;52.850;6.896;2022-10-16T03:25:16;13.40;99.90
59855;DHT22;45732;52.850;6.896;2022-10-16T03:27:42;13.40;99.90
59855;DHT22;45732;52.850;6.896;2022-10-16T03:30:08;13.40;99.90
59855;DHT22;45732;52.850;6.896;2022-10-16T03:32:34;13.40;99.90
59855;DHT22;45732;52.850;6.896;2022-10-16T03:34:59;13.40;99.90
59855;DHT22;45732;52.850;6.896;2022-10-16T03:37:25;13.40;99.90
59855;DHT22;45732;52.850;6.896;2022-10-16T03:39:51;13.40;99.90
59855;DHT22;45732;52.850;6.896;2022-10-16T03:42:17;13.40;99.90
59855;DHT22;45732;52.850;6.896;2022-10-16T03:44:43;13.30;99.90
59855;DHT22;45732;52.850;6.896;2022-10-16T03:47:08;13.30;99.90
59855;DHT22;45732;52.850;6.896;2022-10-16T03:49:34;13.30;99.90
59855;DHT22;45732;52.850;6.896;2022-10-16T03:52:00;13.30;99.90
59855;DHT22;45732;52.850;6.896;2022-10-16T03:54:26;13.30;99.90
59855;DHT22;45732;52.850;6.896;2022-10-16T03:56:51;13.30;99.90
59855;DHT22;45732;52.850;6.896;2022-10-16T03:59:17;13.30;99.90
59855;DHT22;45732;52.850;6.896;2022-10-16T04:01:43;13.30;99.90
59855;DHT22;45732;52.850;6.896;2022-10-16T04:04:08;13.30;99.90
59855;DHT22;45732;52.850;6.896;2022-10-16T04:06:34;13.20;99.90
59855;DHT22;45732;52.850;6.896;2022-10-16T04:09:00;13.30;99.90
59855;DHT22;45732;52.850;6.896;2022-10-16T04:11:25;13.30;99.90
59855;DHT22;45732;52.850;6.896;2022-10-16T04:13:51;13.20;99.90
59855;DHT22;45732;52.850;6.896;2022-10-16T04:16:17;13.20;99.90
59855;DHT22;45732;52.850;6.896;2022-10-16T04:18:42;13.20;99.90
59855;DHT22;45732;52.850;6.896;2022-10-16T04:21:08;13.20;99.90
59855;DHT22;45732;52.850;6.896;2022-10-16T04:23:34;13.20;99.90
59855;DHT22;45732;52.850;6.896;2022-10-16T04:26:00;13.20;99.90
59855;DHT22;45732;52.850;6.896;2022-10-16T04:28:26;13.20;99.90
59855;DHT22;45732;52.850;6.896;2022-10-16T04:30:52;13.20;99.90
59855;DHT22;45732;52.850;6.896;2022-10-16T04:33:18;13.20;99.90
59855;DHT22;45732;52.850;6.896;2022-10-16T04:35:43;13.10;99.90
59855;DHT22;45732;52.850;6.896;2022-10-16T04:38:09;13.10;99.90
59855;DHT22;45732;52.850;6.896;2022-10-16T04:40:35;13.10;99.90
59855;DHT22;45732;52.850;6.896;2022-10-16T04:43:03;13.10;99.90
59855;DHT22;45732;52.850;6.896;2022-10-16T04:45:29;13.10;99.90
59855;DHT22;45732;52.850;6.896;2022-10-16T04:47:59;13.10;99.90
59855;DHT22;45732;52.850;6.896;2022-10-16T04:50:25;13.10;99.90
59855;DHT22;45732;52.850;6.896;2022-10-16T04:52:51;13.10;99.90
59855;DHT22;45732;52.850;6.896;2022-10-16T04:55:17;13.10;99.90
59855;DHT22;45732;52.850;6.896;2022-10-16T04:57:42;13.10;99.90
59855;DHT22;45732;52.850;6.896;2022-10-16T05:00:08;13.10;99.90
59855;DHT22;45732;52.850;6.896;2022-10-16T05:02:35;13.00;99.90
59855;DHT22;45732;52.850;6.896;2022-10-16T05:05:00;13.10;99.90
59855;DHT22;45732;52.850;6.896;2022-10-16T05:07:26;13.10;99.90
59855;DHT22;45732;52.850;6.896;2022-10-16T05:09:52;13.10;99.90
59855;DHT22;45732;52.850;6.896;2022-10-16T05:12:18;13.10;99.90
59855;DHT22;45732;52.850;6.896;2022-10-16T05:14:44;13.10;99.90
59855;DHT22;45732;52.850;6.896;2022-10-16T05:17:09;13.10;99.90
59855;DHT22;45732;52.850;6.896;2022-10-16T05:19:35;13.10;99.90
59855;DHT22;45732;52.850;6.896;2022-10-16T05:22:01;13.10;99.90
59855;DHT22;45732;52.850;6.896;2022-10-16T05:24:26;13.10;99.90
59855;DHT22;45732;52.850;6.896;2022-10-16T05:26:52;13.10;99.90
59855;DHT22;45732;52.850;6.896;2022-10-16T05:29:18;13.00;99.90
59855;DHT22;45732;52.850;6.896;2022-10-16T05:31:44;13.10;99.90
59855;DHT22;45732;52.850;6.896;2022-10-16T05:34:09;13.10;99.90
59855;DHT22;45732;52.850;6.896;2022-10-16T05:36:35;13.10;99.90
59855;DHT22;45732;52.850;6.896;2022-10-16T05:39:01;13.00;99.90
59855;DHT22;45732;52.850;6.896;2022-10-16T05:41:27;13.00;99.90
59855;DHT22;45732;52.850;6.896;2022-10-16T05:43:53;13.00;99.90
59855;DHT22;45732;52.850;6.896;2022-10-16T05:46:19;13.00;99.90
59855;DHT22;45732;52.850;6.896;2022-10-16T05:48:45;13.00;99.90
59855;DHT22;45732;52.850;6.896;2022-10-16T05:51:12;13.00;99.90
59855;DHT22;45732;52.850;6.896;2022-10-16T05:53:39;13.00;99.90
59855;DHT22;45732;52.850;6.896;2022-10-16T05:56:06;13.00;99.90
59855;DHT22;45732;52.850;6.896;2022-10-16T05:58:34;13.00;99.90
59855;DHT22;45732;52.850;6.896;2022-10-16T06:01:12;13.00;99.90
59855;DHT22;45732;52.850;6.896;2022-10-16T06:03:38;13.00;99.90
59855;DHT22;45732;52.850;6.896;2022-10-16T06:06:24;12.90;99.90
59855;DHT22;45732;52.850;6.896;2022-10-16T06:08:52;12.90;99.90
59855;DHT22;45732;52.850;6.896;2022-10-16T06:11:20;13.00;99.90
59855;DHT22;45732;52.850;6.896;2022-10-16T06:13:50;12.90;99.90
59855;DHT22;45732;52.850;6.896;2022-10-16T06:16:17;12.90;99.90
59855;DHT22;45732;52.850;6.896;2022-10-16T06:18:42;13.00;99.90
59855;DHT22;45732;52.850;6.896;2022-10-16T06:21:10;12.90;99.90
59855;DHT22;45732;52.850;6.896;2022-10-16T06:23:37;12.90;99.90
59855;DHT22;45732;52.850;6.896;2022-10-16T06:26:11;12.90;99.90
59855;DHT22;45732;52.850;6.896;2022-10-16T06:28:37;12.90;99.90
59855;DHT22;45732;52.850;6.896;2022-10-16T06:31:05;13.00;99.90
59855;DHT22;45732;52.850;6.896;2022-10-16T06:33:31;13.00;99.90
59855;DHT22;45732;52.850;6.896;2022-10-16T06:36:05;13.00;99.90
59855;DHT22;45732;52.850;6.896;2022-10-16T06:38:31;13.00;99.90
59855;DHT22;45732;52.850;6.896;2022-10-16T06:40:58;13.10;99.90
59855;DHT22;45732;52.850;6.896;2022-10-16T06:43:24;13.10;99.90
59855;DHT22;45732;52.850;6.896;2022-10-16T06:45:56;13.10;99.90
59855;DHT22;45732;52.850;6.896;2022-10-16T06:48:23;13.10;99.90
59855;DHT22;45732;52.850;6.896;2022-10-16T06:50:58;13.10;99.90
59855;DHT22;45732;52.850;6.896;2022-10-16T06:53:25;13.10;99.90
59855;DHT22;45732;52.850;6.896;2022-10-16T06:55:51;13.10;99.90
59855;DHT22;45732;52.850;6.896;2022-10-16T06:58:17;13.20;99.90
59855;DHT22;45732;52.850;6.896;2022-10-16T07:00:42;13.20;99.90
59855;DHT22;45732;52.850;6.896;2022-10-16T07:03:08;13.20;99.90
59855;DHT22;45732;52.850;6.896;2022-10-16T07:05:43;13.20;99.90
59855;DHT22;45732;52.850;6.896;2022-10-16T07:08:09;13.30;99.90
59855;DHT22;45732;52.850;6.896;2022-10-16T07:10:35;13.30;99.90
59855;DHT22;45732;52.850;6.896;2022-10-16T07:13:01;13.30;99.90
59855;DHT22;45732;52.850;6.896;2022-10-16T07:15:27;13.30;99.90
59855;DHT22;45732;52.850;6.896;2022-10-16T07:17:53;13.30;99.90
59855;DHT22;45732;52.850;6.896;2022-10-16T07:20:19;13.30;99.90
59855;DHT22;45732;52.850;6.896;2022-10-16T07:22:45;13.30;99.90
59855;DHT22;45732;52.850;6.896;2022-10-16T07:25:11;13.30;99.90
59855;DHT22;45732;52.850;6.896;2022-10-16T07:27:37;13.40;99.90
59855;DHT22;45732;52.850;6.896;2022-10-16T07:30:04;13.40;99.90
59855;DHT22;45732;52.850;6.896;2022-10-16T07:32:29;13.40;99.90
59855;DHT22;45732;52.850;6.896;2022-10-16T07:34:55;13.40;99.90
59855;DHT22;45732;52.850;6.896;2022-10-16T07:37:21;13.40;99.90
59855;DHT22;45732;52.850;6.896;2022-10-16T07:39:47;13.50;99.90
59855;DHT22;45732;52.850;6.896;2022-10-16T07:42:13;13.50;99.90
59855;DHT22;45732;52.850;6.896;2022-10-16T07:44:38;13.50;99.90
59855;DHT22;45732;52.850;6.896;2022-10-16T07:47:05;13.50;99.90
59855;DHT22;45732;52.850;6.896;2022-10-16T07:49:31;13.50;99.90
59855;DHT22;45732;52.850;6.896;2022-10-16T07:51:56;13.60;99.90
59855;DHT22;45732;52.850;6.896;2022-10-16T07:54:22;13.60;99.90
59855;DHT22;45732;52.850;6.896;2022-10-16T07:56:48;13.60;99.90
59855;DHT22;45732;52.850;6.896;2022-10-16T07:59:14;13.60;99.90
59855;DHT22;45732;52.850;6.896;2022-10-16T08:01:39;13.60;99.90
59855;DHT22;45732;52.850;6.896;2022-10-16T08:04:08;13.70;99.90
59855;DHT22;45732;52.850;6.896;2022-10-16T08:06:38;13.70;99.90
59855;DHT22;45732;52.850;6.896;2022-10-16T08:09:05;13.70;99.90
59855;DHT22;45732;52.850;6.896;2022-10-16T08:11:32;13.70;99.90
59855;DHT22;45732;52.850;6.896;2022-10-16T08:13:57;13.80;99.90
59855;DHT22;45732;52.850;6.896;2022-10-16T08:16:23;13.80;99.90
59855;DHT22;45732;52.850;6.896;2022-10-16T08:18:49;13.80;99.90
59855;DHT22;45732;52.850;6.896;2022-10-16T08:21:19;13.90;99.90
59855;DHT22;45732;52.850;6.896;2022-10-16T08:23:45;13.90;99.90
59855;DHT22;45732;52.850;6.896;2022-10-16T08:26:12;13.90;99.90
59855;DHT22;45732;52.850;6.896;2022-10-16T08:28:38;14.00;99.90
59855;DHT22;45732;52.850;6.896;2022-10-16T08:31:09;14.00;99.90
59855;DHT22;45732;52.850;6.896;2022-10-16T08:33:35;14.00;99.90
59855;DHT22;45732;52.850;6.896;2022-10-16T08:36:02;14.00;99.90
59855;DHT22;45732;52.850;6.896;2022-10-16T08:38:28;14.10;99.90
59855;DHT22;45732;52.850;6.896;2022-10-16T08:44:04;14.10;99.90
59855;DHT22;45732;52.850;6.896;2022-10-16T08:46:56;14.10;99.90
59855;DHT22;45732;52.850;6.896;2022-10-16T08:49:29;14.10;99.90
59855;DHT22;45732;52.850;6.896;2022-10-16T08:51:56;14.10;99.90
59855;DHT22;45732;52.850;6.896;2022-10-16T08:54:50;14.20;99.90
59855;DHT22;45732;52.850;6.896;2022-10-16T08:57:21;14.20;99.90
59855;DHT22;45732;52.850;6.896;2022-10-16T08:59:47;14.30;99.90
59855;DHT22;45732;52.850;6.896;2022-10-16T09:05:03;14.30;99.90
59855;DHT22;45732;52.850;6.896;2022-10-16T09:10:58;14.40;99.90
59855;DHT22;45732;52.850;6.896;2022-10-16T09:13:48;14.50;99.90
59855;DHT22;45732;52.850;6.896;2022-10-16T09:16:31;14.50;99.90
59855;DHT22;45732;52.850;6.896;2022-10-16T09:19:34;14.60;99.90
59855;DHT22;45732;52.850;6.896;2022-10-16T09:21:50;14.60;99.90
59855;DHT22;45732;52.850;6.896;2022-10-16T09:24:21;14.60;99.90
59855;DHT22;45732;52.850;6.896;2022-10-16T09:26:47;14.70;99.90
59855;DHT22;45732;52.850;6.896;2022-10-16T09:29:17;14.80;99.90
59855;DHT22;45732;52.850;6.896;2022-10-16T09:31:46;14.80;99.90
59855;DHT22;45732;52.850;6.896;2022-10-16T09:34:30;14.90;99.90
59855;DHT22;45732;52.850;6.896;2022-10-16T09:36:59;15.00;99.90
59855;DHT22;45732;52.850;6.896;2022-10-16T09:39:25;15.00;99.90
59855;DHT22;45732;52.850;6.896;2022-10-16T09:41:51;15.10;99.90
59855;DHT22;45732;52.850;6.896;2022-10-16T09:46:49;15.20;99.90
59855;DHT22;45732;52.850;6.896;2022-10-16T09:49:26;15.20;99.90
59855;DHT22;45732;52.850;6.896;2022-10-16T09:52:04;15.30;99.90
59855;DHT22;45732;52.850;6.896;2022-10-16T09:54:30;15.40;99.90
59855;DHT22;45732;52.850;6.896;2022-10-16T09:57:12;15.40;99.90
59855;DHT22;45732;52.850;6.896;2022-10-16T09:59:50;15.40;99.90
59855;DHT22;45732;52.850;6.896;2022-10-16T10:02:29;15.50;99.90
59855;DHT22;45732;52.850;6.896;2022-10-16T10:04:56;15.50;99.90
59855;DHT22;45732;52.850;6.896;2022-10-16T10:07:33;15.60;99.90
59855;DHT22;45732;52.850;6.896;2022-10-16T10:10:03;15.70;99.90
59855;DHT22;45732;52.850;6.896;2022-10-16T10:12:30;15.70;99.90
59855;DHT22;45732;52.850;6.896;2022-10-16T10:15:07;15.80;99.90
59855;DHT22;45732;52.850;6.896;2022-10-16T10:17:49;15.80;99.90
59855;DHT22;45732;52.850;6.896;2022-10-16T10:20:28;15.90;99.90
59855;DHT22;45732;52.850;6.896;2022-10-16T10:22:55;15.90;99.90
59855;DHT22;45732;52.850;6.896;2022-10-16T10:25:44;15.90;99.90
59855;DHT22;45732;52.850;6.896;2022-10-16T10:36:58;16.00;99.90
59855;DHT22;45732;52.850;6.896;2022-10-16T10:50:32;16.10;99.90
59855;DHT22;45732;52.850;6.896;2022-10-16T10:53:21;16.20;99.90
59855;DHT22;45732;52.850;6.896;2022-10-16T10:58:45;16.20;99.90
59855;DHT22;45732;52.850;6.896;2022-10-16T11:01:25;16.30;99.90
59855;DHT22;45732;52.850;6.896;2022-10-16T11:04:26;16.30;99.90
59855;DHT22;45732;52.850;6.896;2022-10-16T11:07:04;16.30;99.90
59855;DHT22;45732;52.850;6.896;2022-10-16T11:09:38;16.30;99.90
59855;DHT22;45732;52.850;6.896;2022-10-16T11:12:29;16.30;99.90
59855;DHT22;45732;52.850;6.896;2022-10-16T11:15:02;16.40;99.90
59855;DHT22;45732;52.850;6.896;2022-10-16T11:17:35;16.40;99.90
59855;DHT22;45732;52.850;6.896;2022-10-16T11:22:53;16.40;99.90
59855;DHT22;45732;52.850;6.896;2022-10-16T11:25:32;16.30;99.90
59855;DHT22;45732;52.850;6.896;2022-10-16T11:28:58;16.20;99.90
59855;DHT22;45732;52.850;6.896;2022-10-16T11:31:08;16.00;99.90
59855;DHT22;45732;52.850;6.896;2022-10-16T11:33:46;16.00;99.90
59855;DHT22;45732;52.850;6.896;2022-10-16T11:39:26;15.90;99.90
59855;DHT22;45732;52.850;6.896;2022-10-16T11:42:19;15.90;99.90
59855;DHT22;45732;52.850;6.896;2022-10-16T11:45:36;16.00;99.90
59855;DHT22;45732;52.850;6.896;2022-10-16T11:55:45;16.20;99.90
59855;DHT22;45732;52.850;6.896;2022-10-16T11:58:34;16.20;99.90
59855;DHT22;45732;52.850;6.896;2022-10-16T12:01:15;16.20;99.90
59855;DHT22;45732;52.850;6.896;2022-10-16T12:06:48;16.30;99.90
59855;DHT22;45732;52.850;6.896;2022-10-16T12:09:25;16.40;99.90
59855;DHT22;45732;52.850;6.896;2022-10-16T12:11:51;16.40;99.90
59855;DHT22;45732;52.850;6.896;2022-10-16T12:14:33;16.50;99.90
59855;DHT22;45732;52.850;6.896;2022-10-16T12:17:22;16.50;99.90
59855;DHT22;45732;52.850;6.896;2022-10-16T12:20:22;16.50;99.90
59855;DHT22;45732;52.850;6.896;2022-10-16T12:22:50;16.50;99.90
59855;DHT22;45732;52.850;6.896;2022-10-16T12:25:22;16.60;99.90
59855;DHT22;45732;52.850;6.896;2022-10-16T12:27:59;16.50;99.90
59855;DHT22;45732;52.850;6.896;2022-10-16T12:30:28;16.50;99.90
59855;DHT22;45732;52.850;6.896;2022-10-16T12:32:56;16.50;99.90
59855;DHT22;45732;52.850;6.896;2022-10-16T12:35:29;16.60;99.90
59855;DHT22;45732;52.850;6.896;2022-10-16T12:41:00;16.50;99.90
59855;DHT22;45732;52.850;6.896;2022-10-16T12:48:37;16.70;99.90
59855;DHT22;45732;52.850;6.896;2022-10-16T12:51:34;16.80;99.90
59855;DHT22;45732;52.850;6.896;2022-10-16T12:54:02;16.80;99.90
59855;DHT22;45732;52.850;6.896;2022-10-16T13:02:38;16.80;99.90
59855;DHT22;45732;52.850;6.896;2022-10-16T13:13:19;16.90;99.90
59855;DHT22;45732;52.850;6.896;2022-10-16T13:30:17;16.90;99.90
59855;DHT22;45732;52.850;6.896;2022-10-16T13:32:49;16.90;99.90
59855;DHT22;45732;52.850;6.896;2022-10-16T13:35:24;16.80;99.90
59855;DHT22;45732;52.850;6.896;2022-10-16T13:37:50;16.80;99.90
59855;DHT22;45732;52.850;6.896;2022-10-16T13:40:23;16.70;99.90
59855;DHT22;45732;52.850;6.896;2022-10-16T13:42:50;16.70;99.90
59855;DHT22;45732;52.850;6.896;2022-10-16T13:45:24;16.70;99.90
59855;DHT22;45732;52.850;6.896;2022-10-16T13:48:02;16.60;99.90
59855;DHT22;45732;52.850;6.896;2022-10-16T13:50:27;16.60;99.90
59855;DHT22;45732;52.850;6.896;2022-10-16T13:53:06;16.60;99.90
59855;DHT22;45732;52.850;6.896;2022-10-16T13:55:33;16.60;99.90
59855;DHT22;45732;52.850;6.896;2022-10-16T13:58:08;16.60;99.90
59855;DHT22;45732;52.850;6.896;2022-10-16T14:00:36;16.70;99.90
59855;DHT22;45732;52.850;6.896;2022-10-16T14:03:05;16.70;99.90
59855;DHT22;45732;52.850;6.896;2022-10-16T14:05:32;16.70;99.90
59855;DHT22;45732;52.850;6.896;2022-10-16T14:07:58;16.70;99.90
59855;DHT22;45732;52.850;6.896;2022-10-16T14:10:30;16.70;99.90
59855;DHT22;45732;52.850;6.896;2022-10-16T14:13:05;16.70;99.90
59855;DHT22;45732;52.850;6.896;2022-10-16T14:15:34;16.80;99.90
59855;DHT22;45732;52.850;6.896;2022-10-16T14:18:00;16.80;99.90
59855;DHT22;45732;52.850;6.896;2022-10-16T14:20:29;16.80;99.90
59855;DHT22;45732;52.850;6.896;2022-10-16T14:23:20;16.90;99.90
59855;DHT22;45732;52.850;6.896;2022-10-16T14:25:46;16.80;99.90
59855;DHT22;45732;52.850;6.896;2022-10-16T14:31:01;16.80;99.90
59855;DHT22;45732;52.850;6.896;2022-10-16T14:36:05;16.80;99.90
59855;DHT22;45732;52.850;6.896;2022-10-16T14:38:37;16.80;99.90
59855;DHT22;45732;52.850;6.896;2022-10-16T14:41:04;16.70;99.90
59855;DHT22;45732;52.850;6.896;2022-10-16T14:43:37;16.70;99.90
59855;DHT22;45732;52.850;6.896;2022-10-16T14:46:11;16.70;99.90
59855;DHT22;45732;52.850;6.896;2022-10-16T14:48:42;16.60;99.90
59855;DHT22;45732;52.850;6.896;2022-10-16T14:51:14;16.50;99.90
59855;DHT22;45732;52.850;6.896;2022-10-16T14:53:40;16.50;99.90
59855;DHT22;45732;52.850;6.896;2022-10-16T14:56:07;16.40;99.90
59855;DHT22;45732;52.850;6.896;2022-10-16T14:58:35;16.50;99.90
59855;DHT22;45732;52.850;6.896;2022-10-16T15:01:00;16.40;99.90
59855;DHT22;45732;52.850;6.896;2022-10-16T15:03:26;16.40;99.90
59855;DHT22;45732;52.850;6.896;2022-10-16T15:05:52;16.40;99.90
59855;DHT22;45732;52.850;6.896;2022-10-16T15:08:17;16.40;99.90
59855;DHT22;45732;52.850;6.896;2022-10-16T15:10:44;16.30;99.90
59855;DHT22;45732;52.850;6.896;2022-10-16T15:13:12;16.40;99.90
59855;DHT22;45732;52.850;6.896;2022-10-16T15:15:43;16.30;99.90
59855;DHT22;45732;52.850;6.896;2022-10-16T15:18:08;16.30;99.90
59855;DHT22;45732;52.850;6.896;2022-10-16T15:20:36;16.30;99.90
59855;DHT22;45732;52.850;6.896;2022-10-16T15:23:13;16.30;99.90
59855;DHT22;45732;52.850;6.896;2022-10-16T15:25:45;16.20;99.90
59855;DHT22;45732;52.850;6.896;2022-10-16T15:28:12;16.20;99.90
59855;DHT22;45732;52.850;6.896;2022-10-16T15:30:39;16.10;99.90
59855;DHT22;45732;52.850;6.896;2022-10-16T15:33:10;16.10;99.90
59855;DHT22;45732;52.850;6.896;2022-10-16T15:35:36;16.00;99.90
59855;DHT22;45732;52.850;6.896;2022-10-16T15:38:02;16.00;99.90
59855;DHT22;45732;52.850;6.896;2022-10-16T15:40:27;16.00;99.90
59855;DHT22;45732;52.850;6.896;2022-10-16T15:42:53;15.90;99.90
59855;DHT22;45732;52.850;6.896;2022-10-16T15:45:19;15.80;99.90
59855;DHT22;45732;52.850;6.896;2022-10-16T15:47:45;15.80;99.90
59855;DHT22;45732;52.850;6.896;2022-10-16T15:50:12;15.70;99.90
59855;DHT22;45732;52.850;6.896;2022-10-16T15:52:39;15.70;99.90
59855;DHT22;45732;52.850;6.896;2022-10-16T15:55:11;15.70;99.90
59855;DHT22;45732;52.850;6.896;2022-10-16T15:57:37;15.70;99.90
59855;DHT22;45732;52.850;6.896;2022-10-16T16:00:15;15.60;99.90
59855;DHT22;45732;52.850;6.896;2022-10-16T16:02:42;15.60;99.90
59855;DHT22;45732;52.850;6.896;2022-10-16T16:05:09;15.50;99.90
59855;DHT22;45732;52.850;6.896;2022-10-16T16:07:37;15.50;99.90
59855;DHT22;45732;52.850;6.896;2022-10-16T16:10:05;15.40;99.90
59855;DHT22;45732;52.850;6.896;2022-10-16T16:12:32;15.40;99.90
59855;DHT22;45732;52.850;6.896;2022-10-16T16:14:58;15.30;99.90
59855;DHT22;45732;52.850;6.896;2022-10-16T16:17:23;15.30;99.90
59855;DHT22;45732;52.850;6.896;2022-10-16T16:19:50;15.30;99.90
59855;DHT22;45732;52.850;6.896;2022-10-16T16:22:16;15.20;99.90
59855;DHT22;45732;52.850;6.896;2022-10-16T16:24:41;15.10;99.90
59855;DHT22;45732;52.850;6.896;2022-10-16T16:27:07;15.00;99.90
59855;DHT22;45732;52.850;6.896;2022-10-16T16:29:34;15.00;99.90
59855;DHT22;45732;52.850;6.896;2022-10-16T16:32:00;14.90;99.90
59855;DHT22;45732;52.850;6.896;2022-10-16T16:34:29;14.90;99.90
59855;DHT22;45732;52.850;6.896;2022-10-16T16:36:55;14.80;99.90
59855;DHT22;45732;52.850;6.896;2022-10-16T16:39:22;14.80;99.90
59855;DHT22;45732;52.850;6.896;2022-10-16T16:41:48;14.80;99.90
59855;DHT22;45732;52.850;6.896;2022-10-16T16:44:15;14.70;99.90
59855;DHT22;45732;52.850;6.896;2022-10-16T16:46:42;14.60;99.90
59855;DHT22;45732;52.850;6.896;2022-10-16T16:49:10;14.50;99.90
59855;DHT22;45732;52.850;6.896;2022-10-16T16:51:37;14.50;99.90
59855;DHT22;45732;52.850;6.896;2022-10-16T16:54:03;14.40;99.90
59855;DHT22;45732;52.850;6.896;2022-10-16T16:56:29;14.40;99.90
59855;DHT22;45732;52.850;6.896;2022-10-16T16:58:56;14.40;99.90
59855;DHT22;45732;52.850;6.896;2022-10-16T17:01:23;14.30;99.90
59855;DHT22;45732;52.850;6.896;2022-10-16T17:03:51;14.30;99.90
59855;DHT22;45732;52.850;6.896;2022-10-16T17:06:19;14.20;99.90
59855;DHT22;45732;52.850;6.896;2022-10-16T17:08:45;14.20;99.90
59855;DHT22;45732;52.850;6.896;2022-10-16T17:11:16;14.10;99.90
59855;DHT22;45732;52.850;6.896;2022-10-16T17:13:42;14.10;99.90
59855;DHT22;45732;52.850;6.896;2022-10-16T17:16:08;14.10;99.90
59855;DHT22;45732;52.850;6.896;2022-10-16T17:18:34;14.10;99.90
59855;DHT22;45732;52.850;6.896;2022-10-16T17:21:06;14.10;99.90
59855;DHT22;45732;52.850;6.896;2022-10-16T17:23:33;14.00;99.90
59855;DHT22;45732;52.850;6.896;2022-10-16T17:26:05;14.00;99.90
59855;DHT22;45732;52.850;6.896;2022-10-16T17:28:31;14.00;99.90
59855;DHT22;45732;52.850;6.896;2022-10-16T17:31:10;13.90;99.90
59855;DHT22;45732;52.850;6.896;2022-10-16T17:33:36;13.90;99.90
59855;DHT22;45732;52.850;6.896;2022-10-16T17:36:02;13.80;99.90